world map with BIKF marked

BIKF - Airport

This information may not be accurate or current and is not valid for navigation or flight planning. No warranty of fitness for any purpose is made or implied.

flag of Iceland

Donate via PayPal

Additional information is available on the NEW Great Circle Mapper

Location
City:  Reykjavík, Iceland
Name:Keflavík
ICAO / IATA:BIKF / KEF

Details
Type:Airport (Aerodrome, Airfield)
Latitude:63°59'06"N (63.985000)
Longitude:22°36'20"W (-22.605555)
Elevation:171 ft (52 m)
Runways:2
Longest:10056 × 197 ft (3065 × 60 m)

Time
Timezone:UTC+0 (DST+2)
Local Time:

Weather
METAR:BIKF  220700Z 02022KT 9999 -SHSN FEW024 BKN040 M02/M06 Q1022
TAF:BIKF  220121Z 2203/2303 03025KT 9999 SCT026 TX02/2216Z TNM02/2206Z BECMG 2215/2217 03028G38KT

Related Locations
Nearby:
Farthest:NZTB: 11672 mi / 18784 km
Terra Nova Bay [Mario Zucchelli Station], AQ

Find:

   beyond  
but within

Other Information
Maps:
Links:
Sources:

  


 


Great Circle Mapper   Great Circle Mapper
Great Circle Mapper FAQ   Great Circle Mapper FAQ
  Karl's Home Page
KLS˛   KLS˛ Home
   GC on Facebook
  Flugnet
Airlines of the World   Airlines of the World
Donate via PayPal


Copyright © 2004-2017, Karl L. Swartz. All rights reserved.
All trademarks mentioned herein belong to their respective owners.

Please see credits for attribution and copyright information.

Karl Swartz <karl@kls2.com>
  Powered by FreeBSD
Valid HTML 4.01!
Labeled with ICRA
hCard Microformat
Geo Microformat